sensor_id;sensor_type;location;lat;lon;timestamp;temperature;humidity
3268;DHT22;1646;52.450;13.326;2023-02-28T00:01:44;4.50;99.90
3268;DHT22;1646;52.450;13.326;2023-02-28T00:06:42;4.50;99.90
3268;DHT22;1646;52.450;13.326;2023-02-28T00:11:42;4.50;99.90
3268;DHT22;1646;52.450;13.326;2023-02-28T00:16:40;4.50;99.90
3268;DHT22;1646;52.450;13.326;2023-02-28T00:21:38;4.50;99.90
3268;DHT22;1646;52.450;13.326;2023-02-28T00:26:37;4.50;99.90
3268;DHT22;1646;52.450;13.326;2023-02-28T00:31:37;4.50;99.90
3268;DHT22;1646;52.450;13.326;2023-02-28T00:36:35;4.50;99.90
3268;DHT22;1646;52.450;13.326;2023-02-28T00:41:34;4.50;99.90
3268;DHT22;1646;52.450;13.326;2023-02-28T00:46:32;4.50;99.90
3268;DHT22;1646;52.450;13.326;2023-02-28T00:51:31;4.50;99.90
3268;DHT22;1646;52.450;13.326;2023-02-28T00:56:30;4.40;99.90
3268;DHT22;1646;52.450;13.326;2023-02-28T01:01:28;4.40;99.90
3268;DHT22;1646;52.450;13.326;2023-02-28T01:06:27;4.40;99.90
3268;DHT22;1646;52.450;13.326;2023-02-28T01:11:27;4.40;99.90
3268;DHT22;1646;52.450;13.326;2023-02-28T01:16:26;4.40;99.90
3268;DHT22;1646;52.450;13.326;2023-02-28T01:21:25;4.30;99.90
3268;DHT22;1646;52.450;13.326;2023-02-28T01:26:24;4.30;99.90
3268;DHT22;1646;52.450;13.326;2023-02-28T01:31:24;4.30;99.90
3268;DHT22;1646;52.450;13.326;2023-02-28T01:36:24;4.30;99.90
3268;DHT22;1646;52.450;13.326;2023-02-28T01:41:26;4.30;99.90
3268;DHT22;1646;52.450;13.326;2023-02-28T01:46:26;4.20;99.90
3268;DHT22;1646;52.450;13.326;2023-02-28T01:51:28;4.20;99.90
3268;DHT22;1646;52.450;13.326;2023-02-28T01:56:30;4.10;99.90
3268;DHT22;1646;52.450;13.326;2023-02-28T02:01:32;4.10;99.90
3268;DHT22;1646;52.450;13.326;2023-02-28T02:06:34;3.90;99.90
3268;DHT22;1646;52.450;13.326;2023-02-28T02:11:33;3.80;99.90
3268;DHT22;1646;52.450;13.326;2023-02-28T02:16:45;3.80;99.90
3268;DHT22;1646;52.450;13.326;2023-02-28T02:22:06;3.80;99.90
3268;DHT22;1646;52.450;13.326;2023-02-28T02:27:23;3.70;99.90
3268;DHT22;1646;52.450;13.326;2023-02-28T02:32:44;3.70;99.90
3268;DHT22;1646;52.450;13.326;2023-02-28T02:37:49;3.60;99.90
3268;DHT22;1646;52.450;13.326;2023-02-28T02:42:52;3.50;99.90
3268;DHT22;1646;52.450;13.326;2023-02-28T02:47:55;3.40;99.90
3268;DHT22;1646;52.450;13.326;2023-02-28T02:53:00;3.30;99.90
3268;DHT22;1646;52.450;13.326;2023-02-28T02:58:02;3.20;99.90
3268;DHT22;1646;52.450;13.326;2023-02-28T03:03:01;3.20;99.90
3268;DHT22;1646;52.450;13.326;2023-02-28T03:08:04;3.10;99.90
3268;DHT22;1646;52.450;13.326;2023-02-28T03:18:46;2.90;99.90
3268;DHT22;1646;52.450;13.326;2023-02-28T03:23:55;2.90;99.90
3268;DHT22;1646;52.450;13.326;2023-02-28T03:29:03;2.80;99.90
3268;DHT22;1646;52.450;13.326;2023-02-28T03:34:08;2.70;99.90
3268;DHT22;1646;52.450;13.326;2023-02-28T03:39:10;2.60;99.90
3268;DHT22;1646;52.450;13.326;2023-02-28T03:44:13;2.60;99.90
3268;DHT22;1646;52.450;13.326;2023-02-28T03:49:16;2.60;99.90
3268;DHT22;1646;52.450;13.326;2023-02-28T03:54:19;2.60;99.90
3268;DHT22;1646;52.450;13.326;2023-02-28T03:59:23;2.50;99.90
3268;DHT22;1646;52.450;13.326;2023-02-28T04:04:24;2.50;99.90
3268;DHT22;1646;52.450;13.326;2023-02-28T04:09:23;2.50;99.90
3268;DHT22;1646;52.450;13.326;2023-02-28T04:14:22;2.50;99.90
3268;DHT22;1646;52.450;13.326;2023-02-28T04:19:20;2.40;99.90
3268;DHT22;1646;52.450;13.326;2023-02-28T04:24:20;2.40;99.90
3268;DHT22;1646;52.450;13.326;2023-02-28T04:29:22;2.30;99.90
3268;DHT22;1646;52.450;13.326;2023-02-28T04:34:20;2.30;99.90
3268;DHT22;1646;52.450;13.326;2023-02-28T04:39:19;2.30;99.90
3268;DHT22;1646;52.450;13.326;2023-02-28T04:44:17;2.30;99.90
3268;DHT22;1646;52.450;13.326;2023-02-28T04:49:17;2.20;99.90
3268;DHT22;1646;52.450;13.326;2023-02-28T04:54:15;2.20;99.90
3268;DHT22;1646;52.450;13.326;2023-02-28T04:59:14;2.20;99.90
3268;DHT22;1646;52.450;13.326;2023-02-28T05:04:13;2.10;99.90
3268;DHT22;1646;52.450;13.326;2023-02-28T05:09:13;2.10;99.90
3268;DHT22;1646;52.450;13.326;2023-02-28T05:14:13;2.10;99.90
3268;DHT22;1646;52.450;13.326;2023-02-28T05:19:11;2.00;99.90
3268;DHT22;1646;52.450;13.326;2023-02-28T05:24:11;2.00;99.90
3268;DHT22;1646;52.450;13.326;2023-02-28T05:29:11;1.90;99.90
3268;DHT22;1646;52.450;13.326;2023-02-28T05:34:09;1.90;99.90
3268;DHT22;1646;52.450;13.326;2023-02-28T05:39:08;1.80;99.90
3268;DHT22;1646;52.450;13.326;2023-02-28T05:44:11;1.80;99.90
3268;DHT22;1646;52.450;13.326;2023-02-28T05:49:09;1.80;99.90
3268;DHT22;1646;52.450;13.326;2023-02-28T05:54:08;1.80;99.90
3268;DHT22;1646;52.450;13.326;2023-02-28T05:59:11;1.80;99.90
3268;DHT22;1646;52.450;13.326;2023-02-28T06:04:10;1.80;99.90
3268;DHT22;1646;52.450;13.326;2023-02-28T06:09:27;1.80;99.90
3268;DHT22;1646;52.450;13.326;2023-02-28T06:14:27;1.80;99.90
3268;DHT22;1646;52.450;13.326;2023-02-28T06:19:25;1.80;99.90
3268;DHT22;1646;52.450;13.326;2023-02-28T06:24:25;1.80;99.90
3268;DHT22;1646;52.450;13.326;2023-02-28T06:29:25;1.90;99.90
3268;DHT22;1646;52.450;13.326;2023-02-28T06:34:24;1.90;99.90
3268;DHT22;1646;52.450;13.326;2023-02-28T06:39:23;2.00;99.90
3268;DHT22;1646;52.450;13.326;2023-02-28T06:44:21;2.00;99.90
3268;DHT22;1646;52.450;13.326;2023-02-28T06:49:19;2.10;99.90
3268;DHT22;1646;52.450;13.326;2023-02-28T06:54:19;2.20;99.90
3268;DHT22;1646;52.450;13.326;2023-02-28T06:59:17;2.30;99.90
3268;DHT22;1646;52.450;13.326;2023-02-28T07:04:15;2.40;99.90
3268;DHT22;1646;52.450;13.326;2023-02-28T07:09:14;2.50;99.90
3268;DHT22;1646;52.450;13.326;2023-02-28T07:14:13;2.70;99.90
3268;DHT22;1646;52.450;13.326;2023-02-28T07:19:12;2.80;99.90
3268;DHT22;1646;52.450;13.326;2023-02-28T07:24:10;3.00;99.90
3268;DHT22;1646;52.450;13.326;2023-02-28T07:29:08;3.20;99.90
3268;DHT22;1646;52.450;13.326;2023-02-28T07:34:08;3.40;99.90
3268;DHT22;1646;52.450;13.326;2023-02-28T07:39:06;3.70;99.90
3268;DHT22;1646;52.450;13.326;2023-02-28T07:44:06;4.00;99.90
3268;DHT22;1646;52.450;13.326;2023-02-28T07:49:05;4.20;99.90
3268;DHT22;1646;52.450;13.326;2023-02-28T07:54:05;4.40;99.90
3268;DHT22;1646;52.450;13.326;2023-02-28T07:59:03;4.60;99.90
3268;DHT22;1646;52.450;13.326;2023-02-28T08:04:01;4.80;99.90
3268;DHT22;1646;52.450;13.326;2023-02-28T08:09:00;5.20;99.90
3268;DHT22;1646;52.450;13.326;2023-02-28T08:13:59;5.70;99.90
3268;DHT22;1646;52.450;13.326;2023-02-28T08:18:58;6.30;99.90
3268;DHT22;1646;52.450;13.326;2023-02-28T08:23:56;6.70;99.90
3268;DHT22;1646;52.450;13.326;2023-02-28T08:28:55;7.10;99.90
3268;DHT22;1646;52.450;13.326;2023-02-28T08:33:57;7.40;99.90
3268;DHT22;1646;52.450;13.326;2023-02-28T08:38:56;7.60;99.90
3268;DHT22;1646;52.450;13.326;2023-02-28T08:43:55;7.40;93.40
3268;DHT22;1646;52.450;13.326;2023-02-28T08:48:54;7.30;92.80
3268;DHT22;1646;52.450;13.326;2023-02-28T08:53:54;8.10;92.90
3268;DHT22;1646;52.450;13.326;2023-02-28T08:58:54;10.10;92.70
3268;DHT22;1646;52.450;13.326;2023-02-28T09:03:54;12.00;74.80
3268;DHT22;1646;52.450;13.326;2023-02-28T09:08:59;12.10;65.40
3268;DHT22;1646;52.450;13.326;2023-02-28T09:13:58;12.90;67.00
3268;DHT22;1646;52.450;13.326;2023-02-28T09:18:57;12.30;60.80
3268;DHT22;1646;52.450;13.326;2023-02-28T09:23:55;12.00;63.00
3268;DHT22;1646;52.450;13.326;2023-02-28T09:28:55;11.80;60.50
3268;DHT22;1646;52.450;13.326;2023-02-28T09:33:57;11.10;61.00
3268;DHT22;1646;52.450;13.326;2023-02-28T09:38:56;11.10;62.20
3268;DHT22;1646;52.450;13.326;2023-02-28T09:43:57;11.90;63.10
3268;DHT22;1646;52.450;13.326;2023-02-28T09:48:56;14.00;63.80
3268;DHT22;1646;52.450;13.326;2023-02-28T09:53:57;15.00;57.30
3268;DHT22;1646;52.450;13.326;2023-02-28T09:59:01;14.90;56.40
3268;DHT22;1646;52.450;13.326;2023-02-28T10:04:05;15.20;57.10
3268;DHT22;1646;52.450;13.326;2023-02-28T10:09:10;17.20;56.10
3268;DHT22;1646;52.450;13.326;2023-02-28T10:14:15;19.60;52.60
3268;DHT22;1646;52.450;13.326;2023-02-28T10:19:15;21.30;47.30
3268;DHT22;1646;52.450;13.326;2023-02-28T10:24:20;21.90;41.60
3268;DHT22;1646;52.450;13.326;2023-02-28T10:29:20;20.80;40.00
3268;DHT22;1646;52.450;13.326;2023-02-28T10:34:20;21.20;40.60
3268;DHT22;1646;52.450;13.326;2023-02-28T10:39:40;21.90;38.40
3268;DHT22;1646;52.450;13.326;2023-02-28T10:44:40;23.30;37.60
3268;DHT22;1646;52.450;13.326;2023-02-28T10:49:47;24.40;35.10
3268;DHT22;1646;52.450;13.326;2023-02-28T10:54:45;24.50;36.20
3268;DHT22;1646;52.450;13.326;2023-02-28T10:59:45;25.30;34.20
3268;DHT22;1646;52.450;13.326;2023-02-28T11:04:44;25.70;33.90
3268;DHT22;1646;52.450;13.326;2023-02-28T11:09:46;26.10;32.90
3268;DHT22;1646;52.450;13.326;2023-02-28T11:14:50;26.40;32.30
3268;DHT22;1646;52.450;13.326;2023-02-28T11:19:51;26.00;31.20
3268;DHT22;1646;52.450;13.326;2023-02-28T11:24:53;26.00;32.40
3268;DHT22;1646;52.450;13.326;2023-02-28T11:29:53;25.90;30.60
3268;DHT22;1646;52.450;13.326;2023-02-28T11:35:02;26.10;30.10
3268;DHT22;1646;52.450;13.326;2023-02-28T11:40:00;26.50;32.50
3268;DHT22;1646;52.450;13.326;2023-02-28T11:45:12;26.60;32.60
3268;DHT22;1646;52.450;13.326;2023-02-28T11:50:30;26.00;30.50
3268;DHT22;1646;52.450;13.326;2023-02-28T11:55:36;25.30;30.40
3268;DHT22;1646;52.450;13.326;2023-02-28T12:00:55;24.30;31.00
3268;DHT22;1646;52.450;13.326;2023-02-28T12:06:04;21.80;31.40
3268;DHT22;1646;52.450;13.326;2023-02-28T12:11:18;19.30;33.50
3268;DHT22;1646;52.450;13.326;2023-02-28T12:16:40;17.30;34.20
3268;DHT22;1646;52.450;13.326;2023-02-28T12:21:53;16.00;35.00
3268;DHT22;1646;52.450;13.326;2023-02-28T12:26:55;15.20;36.50
3268;DHT22;1646;52.450;13.326;2023-02-28T12:32:01;14.50;38.00
3268;DHT22;1646;52.450;13.326;2023-02-28T12:37:05;14.40;36.90
3268;DHT22;1646;52.450;13.326;2023-02-28T12:42:10;13.80;37.60
3268;DHT22;1646;52.450;13.326;2023-02-28T12:47:15;12.90;36.60
3268;DHT22;1646;52.450;13.326;2023-02-28T12:52:18;12.30;38.20
3268;DHT22;1646;52.450;13.326;2023-02-28T12:57:22;12.10;39.20
3268;DHT22;1646;52.450;13.326;2023-02-28T13:02:51;12.20;40.40
3268;DHT22;1646;52.450;13.326;2023-02-28T13:13:17;11.90;39.40
3268;DHT22;1646;52.450;13.326;2023-02-28T13:18:29;11.80;40.30
3268;DHT22;1646;52.450;13.326;2023-02-28T13:23:39;11.60;40.60
3268;DHT22;1646;52.450;13.326;2023-02-28T13:29:02;11.40;42.30
3268;DHT22;1646;52.450;13.326;2023-02-28T13:34:13;11.20;42.80
3268;DHT22;1646;52.450;13.326;2023-02-28T13:39:45;11.20;42.80
3268;DHT22;1646;52.450;13.326;2023-02-28T13:50:27;10.80;42.70
3268;DHT22;1646;52.450;13.326;2023-02-28T13:55:29;10.60;43.30
3268;DHT22;1646;52.450;13.326;2023-02-28T14:00:39;10.50;43.10
3268;DHT22;1646;52.450;13.326;2023-02-28T14:05:42;10.20;42.50
3268;DHT22;1646;52.450;13.326;2023-02-28T14:10:44;9.80;43.60
3268;DHT22;1646;52.450;13.326;2023-02-28T14:15:48;9.80;44.60
3268;DHT22;1646;52.450;13.326;2023-02-28T14:20:51;9.90;45.50
3268;DHT22;1646;52.450;13.326;2023-02-28T14:25:58;9.90;45.10
3268;DHT22;1646;52.450;13.326;2023-02-28T14:31:04;9.80;44.30
3268;DHT22;1646;52.450;13.326;2023-02-28T14:36:16;9.70;45.40
3268;DHT22;1646;52.450;13.326;2023-02-28T14:41:19;9.50;44.10
3268;DHT22;1646;52.450;13.326;2023-02-28T14:46:19;9.50;45.00
3268;DHT22;1646;52.450;13.326;2023-02-28T14:51:21;9.60;44.80
3268;DHT22;1646;52.450;13.326;2023-02-28T14:56:21;9.40;44.90
3268;DHT22;1646;52.450;13.326;2023-02-28T15:01:21;9.40;44.70
3268;DHT22;1646;52.450;13.326;2023-02-28T15:06:21;9.70;45.70
3268;DHT22;1646;52.450;13.326;2023-02-28T15:11:22;9.90;45.80
3268;DHT22;1646;52.450;13.326;2023-02-28T15:16:22;9.80;45.10
3268;DHT22;1646;52.450;13.326;2023-02-28T15:21:25;9.50;46.20
3268;DHT22;1646;52.450;13.326;2023-02-28T15:26:27;9.90;46.70
3268;DHT22;1646;52.450;13.326;2023-02-28T15:31:29;12.90;46.40
3268;DHT22;1646;52.450;13.326;2023-02-28T15:36:44;16.80;44.40
3268;DHT22;1646;52.450;13.326;2023-02-28T15:41:42;19.70;41.00
3268;DHT22;1646;52.450;13.326;2023-02-28T15:46:43;20.90;39.50
3268;DHT22;1646;52.450;13.326;2023-02-28T15:51:42;21.50;38.80
3268;DHT22;1646;52.450;13.326;2023-02-28T15:56:49;22.00;39.00
3268;DHT22;1646;52.450;13.326;2023-02-28T16:02:13;22.40;38.60
3268;DHT22;1646;52.450;13.326;2023-02-28T16:07:14;21.80;37.70
3268;DHT22;1646;52.450;13.326;2023-02-28T16:12:13;19.20;35.90
3268;DHT22;1646;52.450;13.326;2023-02-28T16:17:17;16.30;36.50
3268;DHT22;1646;52.450;13.326;2023-02-28T16:22:17;13.80;36.50
3268;DHT22;1646;52.450;13.326;2023-02-28T16:27:21;11.80;37.10
3268;DHT22;1646;52.450;13.326;2023-02-28T16:32:23;10.60;38.10
3268;DHT22;1646;52.450;13.326;2023-02-28T16:37:21;9.80;39.50
3268;DHT22;1646;52.450;13.326;2023-02-28T16:42:24;9.00;40.50
3268;DHT22;1646;52.450;13.326;2023-02-28T16:47:24;8.50;40.40
3268;DHT22;1646;52.450;13.326;2023-02-28T16:52:23;8.10;41.00
3268;DHT22;1646;52.450;13.326;2023-02-28T16:57:23;7.90;41.50
3268;DHT22;1646;52.450;13.326;2023-02-28T17:02:22;7.70;41.60
3268;DHT22;1646;52.450;13.326;2023-02-28T17:07:21;7.40;42.20
3268;DHT22;1646;52.450;13.326;2023-02-28T17:12:19;7.30;42.60
3268;DHT22;1646;52.450;13.326;2023-02-28T17:17:21;7.20;43.20
3268;DHT22;1646;52.450;13.326;2023-02-28T17:22:19;7.00;44.70
3268;DHT22;1646;52.450;13.326;2023-02-28T17:27:18;6.90;44.60
3268;DHT22;1646;52.450;13.326;2023-02-28T17:32:16;6.80;44.90
3268;DHT22;1646;52.450;13.326;2023-02-28T17:37:16;6.70;46.80
3268;DHT22;1646;52.450;13.326;2023-02-28T17:42:14;6.60;47.70
3268;DHT22;1646;52.450;13.326;2023-02-28T17:47:13;6.50;47.30
3268;DHT22;1646;52.450;13.326;2023-02-28T17:52:11;6.40;46.30
3268;DHT22;1646;52.450;13.326;2023-02-28T17:57:12;6.30;46.80
3268;DHT22;1646;52.450;13.326;2023-02-28T18:02:13;6.20;48.20
3268;DHT22;1646;52.450;13.326;2023-02-28T18:07:12;6.10;48.30
3268;DHT22;1646;52.450;13.326;2023-02-28T18:12:11;6.10;49.20
3268;DHT22;1646;52.450;13.326;2023-02-28T18:17:11;6.00;49.40
3268;DHT22;1646;52.450;13.326;2023-02-28T18:22:10;5.90;49.10
3268;DHT22;1646;52.450;13.326;2023-02-28T18:27:08;5.90;50.40
3268;DHT22;1646;52.450;13.326;2023-02-28T18:32:08;5.70;50.50
3268;DHT22;1646;52.450;13.326;2023-02-28T18:37:07;5.70;50.70
3268;DHT22;1646;52.450;13.326;2023-02-28T18:42:07;5.60;51.30
3268;DHT22;1646;52.450;13.326;2023-02-28T18:47:06;5.50;51.00
3268;DHT22;1646;52.450;13.326;2023-02-28T18:52:06;5.40;51.70
3268;DHT22;1646;52.450;13.326;2023-02-28T18:57:04;5.30;52.10
3268;DHT22;1646;52.450;13.326;2023-02-28T19:02:02;5.30;52.10
3268;DHT22;1646;52.450;13.326;2023-02-28T19:07:01;5.20;52.80
3268;DHT22;1646;52.450;13.326;2023-02-28T19:12:01;5.10;53.50
3268;DHT22;1646;52.450;13.326;2023-02-28T19:16:59;5.10;54.40
3268;DHT22;1646;52.450;13.326;2023-02-28T19:21:57;5.10;53.60
3268;DHT22;1646;52.450;13.326;2023-02-28T19:26:56;5.00;54.00
3268;DHT22;1646;52.450;13.326;2023-02-28T19:31:55;5.00;54.50
3268;DHT22;1646;52.450;13.326;2023-02-28T19:36:54;4.90;55.30
3268;DHT22;1646;52.450;13.326;2023-02-28T19:41:52;4.90;55.40
3268;DHT22;1646;52.450;13.326;2023-02-28T19:46:51;4.90;55.10
3268;DHT22;1646;52.450;13.326;2023-02-28T19:51:51;4.90;56.00
3268;DHT22;1646;52.450;13.326;2023-02-28T19:56:49;4.70;57.30
3268;DHT22;1646;52.450;13.326;2023-02-28T20:01:50;4.60;59.30
3268;DHT22;1646;52.450;13.326;2023-02-28T20:06:52;4.50;59.50
3268;DHT22;1646;52.450;13.326;2023-02-28T20:11:50;4.40;59.00
3268;DHT22;1646;52.450;13.326;2023-02-28T20:16:49;4.40;60.30
3268;DHT22;1646;52.450;13.326;2023-02-28T20:21:47;4.30;59.40
3268;DHT22;1646;52.450;13.326;2023-02-28T20:26:47;4.30;61.80
3268;DHT22;1646;52.450;13.326;2023-02-28T20:31:45;4.20;62.10
3268;DHT22;1646;52.450;13.326;2023-02-28T20:36:43;4.10;61.80
3268;DHT22;1646;52.450;13.326;2023-02-28T20:41:42;4.10;61.40
3268;DHT22;1646;52.450;13.326;2023-02-28T20:46:42;4.10;62.50
3268;DHT22;1646;52.450;13.326;2023-02-28T20:51:40;4.00;62.30
3268;DHT22;1646;52.450;13.326;2023-02-28T20:56:38;4.00;64.50
3268;DHT22;1646;52.450;13.326;2023-02-28T21:01:36;3.90;66.40
3268;DHT22;1646;52.450;13.326;2023-02-28T21:06:41;3.80;65.50
3268;DHT22;1646;52.450;13.326;2023-02-28T21:11:42;3.80;67.50
3268;DHT22;1646;52.450;13.326;2023-02-28T21:16:42;3.70;69.60
3268;DHT22;1646;52.450;13.326;2023-02-28T21:21:43;3.60;70.30
3268;DHT22;1646;52.450;13.326;2023-02-28T21:26:45;3.60;71.20
3268;DHT22;1646;52.450;13.326;2023-02-28T21:31:43;3.50;70.10
3268;DHT22;1646;52.450;13.326;2023-02-28T21:36:44;3.50;70.80
3268;DHT22;1646;52.450;13.326;2023-02-28T21:41:43;3.50;72.10
3268;DHT22;1646;52.450;13.326;2023-02-28T21:46:41;3.50;72.80
3268;DHT22;1646;52.450;13.326;2023-02-28T21:51:40;3.40;72.10
3268;DHT22;1646;52.450;13.326;2023-02-28T21:56:40;3.40;74.90
3268;DHT22;1646;52.450;13.326;2023-02-28T22:01:40;3.30;75.80
3268;DHT22;1646;52.450;13.326;2023-02-28T22:06:40;3.30;77.10
3268;DHT22;1646;52.450;13.326;2023-02-28T22:11:40;3.20;77.00
3268;DHT22;1646;52.450;13.326;2023-02-28T22:16:38;3.20;80.20
3268;DHT22;1646;52.450;13.326;2023-02-28T22:21:49;3.20;81.50
3268;DHT22;1646;52.450;13.326;2023-02-28T22:26:49;3.10;80.70
3268;DHT22;1646;52.450;13.326;2023-02-28T22:31:47;3.10;81.60
3268;DHT22;1646;52.450;13.326;2023-02-28T22:36:46;3.10;83.60
3268;DHT22;1646;52.450;13.326;2023-02-28T22:41:44;3.10;81.90
3268;DHT22;1646;52.450;13.326;2023-02-28T22:46:43;3.00;83.70
3268;DHT22;1646;52.450;13.326;2023-02-28T22:51:42;3.00;85.00
3268;DHT22;1646;52.450;13.326;2023-02-28T22:56:40;2.90;86.40
3268;DHT22;1646;52.450;13.326;2023-02-28T23:01:38;2.90;86.40
3268;DHT22;1646;52.450;13.326;2023-02-28T23:06:42;2.90;87.90
3268;DHT22;1646;52.450;13.326;2023-02-28T23:11:43;2.80;87.20
3268;DHT22;1646;52.450;13.326;2023-02-28T23:16:44;2.80;90.10
3268;DHT22;1646;52.450;13.326;2023-02-28T23:21:44;2.80;90.40
3268;DHT22;1646;52.450;13.326;2023-02-28T23:26:45;2.80;91.00
3268;DHT22;1646;52.450;13.326;2023-02-28T23:31:45;2.70;92.70
3268;DHT22;1646;52.450;13.326;2023-02-28T23:36:45;2.70;93.70
3268;DHT22;1646;52.450;13.326;2023-02-28T23:41:43;2.70;92.30
3268;DHT22;1646;52.450;13.326;2023-02-28T23:46:42;2.60;92.80
3268;DHT22;1646;52.450;13.326;2023-02-28T23:51:41;2.60;93.20
3268;DHT22;1646;52.450;13.326;2023-02-28T23:56:40;2.60;92.70
